sensor_id;sensor_type;location;lat;lon;timestamp;pressure;altitude;pressure_sealevel;temperature;humidity
48624;BME280;34422;45.802;16.114;2023-03-25T15:54:55;99874.78;;;12.51;100.00
48624;BME280;34422;45.802;16.114;2023-03-25T15:57:26;99866.63;;;11.86;100.00
48624;BME280;34422;45.802;16.114;2023-03-25T16:02:29;99867.50;;;10.95;100.00
48624;BME280;34422;45.802;16.114;2023-03-25T16:04:57;99854.84;;;10.71;100.00
48624;BME280;34422;45.802;16.114;2023-03-25T16:07:26;99838.78;;;10.76;100.00
48624;BME280;34422;45.802;16.114;2023-03-25T16:10:10;99849.09;;;10.86;100.00
48624;BME280;34422;45.802;16.114;2023-03-25T16:12:36;99836.53;;;10.73;100.00
48624;BME280;34422;45.802;16.114;2023-03-25T16:15:04;99839.00;;;10.75;100.00
48624;BME280;34422;45.802;16.114;2023-03-25T16:17:32;99836.84;;;10.65;100.00
48624;BME280;34422;45.802;16.114;2023-03-25T16:20:00;99834.41;;;10.57;100.00
48624;BME280;34422;45.802;16.114;2023-03-25T16:22:29;99840.50;;;10.71;100.00
48624;BME280;34422;45.802;16.114;2023-03-25T16:25:03;99832.03;;;10.85;100.00
48624;BME280;34422;45.802;16.114;2023-03-25T16:27:40;99832.47;;;10.82;100.00
48624;BME280;34422;45.802;16.114;2023-03-25T16:30:19;99845.47;;;10.74;100.00
48624;BME280;34422;45.802;16.114;2023-03-25T16:32:47;99853.41;;;10.50;100.00
48624;BME280;34422;45.802;16.114;2023-03-25T16:35:25;99862.59;;;10.18;100.00
48624;BME280;34422;45.802;16.114;2023-03-25T16:37:55;99867.34;;;9.91;100.00
48624;BME280;34422;45.802;16.114;2023-03-25T16:40:42;99888.88;;;9.73;100.00
48624;BME280;34422;45.802;16.114;2023-03-25T16:43:13;99886.38;;;9.71;100.00
48624;BME280;34422;45.802;16.114;2023-03-25T16:45:43;99892.88;;;9.63;100.00
48624;BME280;34422;45.802;16.114;2023-03-25T16:48:15;99885.63;;;9.57;100.00
48624;BME280;34422;45.802;16.114;2023-03-25T16:50:43;99887.59;;;9.37;100.00
48624;BME280;34422;45.802;16.114;2023-03-25T16:53:15;99889.09;;;9.20;100.00
48624;BME280;34422;45.802;16.114;2023-03-25T16:55:47;99898.06;;;9.14;100.00
48624;BME280;34422;45.802;16.114;2023-03-25T16:58:20;99895.78;;;9.11;100.00
48624;BME280;34422;45.802;16.114;2023-03-25T17:00:49;99892.50;;;8.96;100.00
48624;BME280;34422;45.802;16.114;2023-03-25T17:03:36;99898.53;;;8.84;100.00
48624;BME280;34422;45.802;16.114;2023-03-25T17:06:31;99898.75;;;8.76;100.00
48624;BME280;34422;45.802;16.114;2023-03-25T17:09:01;99888.63;;;8.59;100.00
48624;BME280;34422;45.802;16.114;2023-03-25T17:11:31;99888.00;;;8.50;100.00
48624;BME280;34422;45.802;16.114;2023-03-25T17:14:13;99889.03;;;8.42;100.00
48624;BME280;34422;45.802;16.114;2023-03-25T17:16:44;99886.09;;;8.31;100.00
48624;BME280;34422;45.802;16.114;2023-03-25T17:19:13;99896.66;;;8.26;100.00
48624;BME280;34422;45.802;16.114;2023-03-25T17:22:03;99895.22;;;8.16;100.00
48624;BME280;34422;45.802;16.114;2023-03-25T17:24:39;99892.31;;;8.11;100.00
48624;BME280;34422;45.802;16.114;2023-03-25T17:27:25;99900.16;;;8.06;100.00
48624;BME280;34422;45.802;16.114;2023-03-25T17:29:56;99905.34;;;8.01;100.00
48624;BME280;34422;45.802;16.114;2023-03-25T17:32:23;99913.84;;;7.98;100.00
48624;BME280;34422;45.802;16.114;2023-03-25T17:35:00;99910.13;;;7.99;100.00
48624;BME280;34422;45.802;16.114;2023-03-25T17:37:29;99903.47;;;7.95;100.00
48624;BME280;34422;45.802;16.114;2023-03-25T17:39:59;99899.53;;;7.98;100.00
48624;BME280;34422;45.802;16.114;2023-03-25T17:42:29;99899.75;;;7.96;100.00
48624;BME280;34422;45.802;16.114;2023-03-25T17:44:57;99900.38;;;7.98;100.00
48624;BME280;34422;45.802;16.114;2023-03-25T17:47:24;99888.13;;;7.89;100.00
48624;BME280;34422;45.802;16.114;2023-03-25T17:49:51;99891.84;;;7.95;100.00
48624;BME280;34422;45.802;16.114;2023-03-25T17:52:18;99899.31;;;7.93;100.00
48624;BME280;34422;45.802;16.114;2023-03-25T17:54:45;99906.59;;;7.92;100.00
48624;BME280;34422;45.802;16.114;2023-03-25T17:57:17;99900.56;;;7.90;100.00
48624;BME280;34422;45.802;16.114;2023-03-25T17:59:44;99896.84;;;7.91;100.00
48624;BME280;34422;45.802;16.114;2023-03-25T18:02:14;99906.78;;;7.91;100.00
48624;BME280;34422;45.802;16.114;2023-03-25T18:04:42;99912.19;;;7.91;100.00
48624;BME280;34422;45.802;16.114;2023-03-25T18:07:09;99910.72;;;7.88;100.00
48624;BME280;34422;45.802;16.114;2023-03-25T18:09:37;99922.13;;;7.90;100.00
48624;BME280;34422;45.802;16.114;2023-03-25T18:12:04;99923.78;;;7.91;100.00
48624;BME280;34422;45.802;16.114;2023-03-25T18:14:31;99922.13;;;7.90;100.00
48624;BME280;34422;45.802;16.114;2023-03-25T18:16:58;99924.63;;;7.92;100.00
48624;BME280;34422;45.802;16.114;2023-03-25T18:19:27;99925.84;;;7.89;100.00
48624;BME280;34422;45.802;16.114;2023-03-25T18:21:56;99911.75;;;7.87;100.00
48624;BME280;34422;45.802;16.114;2023-03-25T18:24:23;99916.50;;;7.85;100.00
48624;BME280;34422;45.802;16.114;2023-03-25T18:26:50;99915.69;;;7.84;100.00
48624;BME280;34422;45.802;16.114;2023-03-25T18:29:25;99915.44;;;7.79;100.00
48624;BME280;34422;45.802;16.114;2023-03-25T18:31:56;99918.13;;;7.79;100.00
48624;BME280;34422;45.802;16.114;2023-03-25T18:34:23;99907.97;;;7.68;100.00
48624;BME280;34422;45.802;16.114;2023-03-25T18:36:52;99931.78;;;7.71;100.00
48624;BME280;34422;45.802;16.114;2023-03-25T18:39:24;99934.06;;;7.68;100.00
48624;BME280;34422;45.802;16.114;2023-03-25T18:41:52;99932.81;;;7.70;100.00
48624;BME280;34422;45.802;16.114;2023-03-25T18:44:19;99935.50;;;7.64;100.00
48624;BME280;34422;45.802;16.114;2023-03-25T18:46:46;99935.31;;;7.65;100.00
48624;BME280;34422;45.802;16.114;2023-03-25T18:49:16;99934.44;;;7.58;100.00
48624;BME280;34422;45.802;16.114;2023-03-25T18:51:44;99938.97;;;7.51;100.00
48624;BME280;34422;45.802;16.114;2023-03-25T18:54:14;99941.88;;;7.49;100.00
48624;BME280;34422;45.802;16.114;2023-03-25T18:56:41;99938.50;;;7.41;100.00
48624;BME280;34422;45.802;16.114;2023-03-25T18:59:10;99935.41;;;7.37;100.00
48624;BME280;34422;45.802;16.114;2023-03-25T19:01:37;99949.47;;;7.39;100.00
48624;BME280;34422;45.802;16.114;2023-03-25T19:04:04;99956.09;;;7.37;100.00
48624;BME280;34422;45.802;16.114;2023-03-25T19:06:31;99958.56;;;7.38;100.00
48624;BME280;34422;45.802;16.114;2023-03-25T19:08:58;99952.16;;;7.39;100.00
48624;BME280;34422;45.802;16.114;2023-03-25T19:11:25;99953.19;;;7.38;100.00
48624;BME280;34422;45.802;16.114;2023-03-25T19:13:52;99960.88;;;7.41;100.00
48624;BME280;34422;45.802;16.114;2023-03-25T19:16:19;99953.22;;;7.45;100.00
48624;BME280;34422;45.802;16.114;2023-03-25T19:18:47;99936.84;;;7.40;100.00
48624;BME280;34422;45.802;16.114;2023-03-25T19:21:16;99952.22;;;7.53;100.00
48624;BME280;34422;45.802;16.114;2023-03-25T19:23:44;99944.13;;;7.53;100.00
48624;BME280;34422;45.802;16.114;2023-03-25T19:26:11;99936.06;;;7.53;100.00
48624;BME280;34422;45.802;16.114;2023-03-25T19:28:38;99936.69;;;7.55;100.00
48624;BME280;34422;45.802;16.114;2023-03-25T19:31:05;99942.50;;;7.52;100.00
48624;BME280;34422;45.802;16.114;2023-03-25T19:33:32;99949.31;;;7.47;100.00
48624;BME280;34422;45.802;16.114;2023-03-25T19:36:00;99950.94;;;7.42;100.00
48624;BME280;34422;45.802;16.114;2023-03-25T19:38:29;99957.97;;;7.36;100.00
48624;BME280;34422;45.802;16.114;2023-03-25T19:41:16;99963.09;;;7.31;100.00
48624;BME280;34422;45.802;16.114;2023-03-25T19:43:43;99970.09;;;7.26;100.00
48624;BME280;34422;45.802;16.114;2023-03-25T19:46:10;99961.38;;;7.17;100.00
48624;BME280;34422;45.802;16.114;2023-03-25T19:48:37;99967.13;;;7.14;100.00
48624;BME280;34422;45.802;16.114;2023-03-25T19:51:04;99972.31;;;7.16;100.00
48624;BME280;34422;45.802;16.114;2023-03-25T19:53:31;99970.63;;;7.08;100.00
48624;BME280;34422;45.802;16.114;2023-03-25T19:56:03;99969.34;;;7.04;100.00
48624;BME280;34422;45.802;16.114;2023-03-25T19:58:30;99977.16;;;6.99;100.00
48624;BME280;34422;45.802;16.114;2023-03-25T20:00:58;99977.34;;;6.91;100.00
48624;BME280;34422;45.802;16.114;2023-03-25T20:03:25;99959.69;;;6.82;100.00
48624;BME280;34422;45.802;16.114;2023-03-25T20:05:56;99958.22;;;6.79;100.00
48624;BME280;34422;45.802;16.114;2023-03-25T20:08:23;99953.81;;;6.71;100.00
48624;BME280;34422;45.802;16.114;2023-03-25T20:10:51;99957.56;;;6.77;100.00
48624;BME280;34422;45.802;16.114;2023-03-25T20:13:18;99960.19;;;6.70;100.00
48624;BME280;34422;45.802;16.114;2023-03-25T20:15:45;99958.88;;;6.60;100.00
48624;BME280;34422;45.802;16.114;2023-03-25T20:18:14;99956.16;;;6.53;100.00
48624;BME280;34422;45.802;16.114;2023-03-25T20:20:41;99945.44;;;6.60;100.00
48624;BME280;34422;45.802;16.114;2023-03-25T20:23:08;99926.34;;;6.48;100.00
48624;BME280;34422;45.802;16.114;2023-03-25T20:25:35;99933.53;;;6.41;100.00
48624;BME280;34422;45.802;16.114;2023-03-25T20:28:03;99937.22;;;6.40;100.00
48624;BME280;34422;45.802;16.114;2023-03-25T20:30:32;99953.09;;;6.35;100.00
48624;BME280;34422;45.802;16.114;2023-03-25T20:33:01;99958.47;;;6.35;100.00
48624;BME280;34422;45.802;16.114;2023-03-25T20:35:29;99957.25;;;6.37;100.00
48624;BME280;34422;45.802;16.114;2023-03-25T20:37:56;99944.75;;;6.30;100.00
48624;BME280;34422;45.802;16.114;2023-03-25T20:40:23;99933.63;;;6.33;100.00
48624;BME280;34422;45.802;16.114;2023-03-25T20:42:50;99941.13;;;6.37;100.00
48624;BME280;34422;45.802;16.114;2023-03-25T20:45:17;99941.13;;;6.37;100.00
48624;BME280;34422;45.802;16.114;2023-03-25T20:47:44;99941.88;;;6.31;100.00
48624;BME280;34422;45.802;16.114;2023-03-25T20:50:13;99937.69;;;6.22;100.00
48624;BME280;34422;45.802;16.114;2023-03-25T20:52:41;99937.50;;;6.24;100.00
48624;BME280;34422;45.802;16.114;2023-03-25T20:55:09;99933.97;;;6.23;100.00
48624;BME280;34422;45.802;16.114;2023-03-25T20:57:37;99939.28;;;6.17;100.00
48624;BME280;34422;45.802;16.114;2023-03-25T21:00:05;99944.97;;;6.07;100.00
48624;BME280;34422;45.802;16.114;2023-03-25T21:02:33;99956.88;;;5.98;100.00
48624;BME280;34422;45.802;16.114;2023-03-25T21:04:59;99968.44;;;5.98;100.00
48624;BME280;34422;45.802;16.114;2023-03-25T21:07:28;99970.09;;;5.99;100.00
48624;BME280;34422;45.802;16.114;2023-03-25T21:09:56;99971.69;;;5.94;100.00
48624;BME280;34422;45.802;16.114;2023-03-25T21:12:23;99977.44;;;5.91;100.00
48624;BME280;34422;45.802;16.114;2023-03-25T21:14:51;99984.66;;;5.76;100.00
48624;BME280;34422;45.802;16.114;2023-03-25T21:17:19;99983.00;;;5.75;100.00
48624;BME280;34422;45.802;16.114;2023-03-25T21:19:46;99980.88;;;5.70;100.00
48624;BME280;34422;45.802;16.114;2023-03-25T21:22:13;99999.41;;;5.65;100.00
48624;BME280;34422;45.802;16.114;2023-03-25T21:24:39;99989.78;;;5.56;100.00
48624;BME280;34422;45.802;16.114;2023-03-25T21:27:06;99995.91;;;5.50;100.00
48624;BME280;34422;45.802;16.114;2023-03-25T21:29:34;100001.25;;;5.50;100.00
48624;BME280;34422;45.802;16.114;2023-03-25T21:32:02;99997.31;;;5.46;100.00
48624;BME280;34422;45.802;16.114;2023-03-25T21:34:29;99997.03;;;5.41;100.00
48624;BME280;34422;45.802;16.114;2023-03-25T21:36:57;99991.00;;;5.39;100.00
48624;BME280;34422;45.802;16.114;2023-03-25T21:39:24;99984.97;;;5.36;100.00
48624;BME280;34422;45.802;16.114;2023-03-25T21:41:50;99978.13;;;5.34;100.00
48624;BME280;34422;45.802;16.114;2023-03-25T21:44:17;99982.94;;;5.39;100.00
48624;BME280;34422;45.802;16.114;2023-03-25T21:46:44;99989.97;;;5.40;100.00
48624;BME280;34422;45.802;16.114;2023-03-25T21:49:11;99982.78;;;5.25;100.00
48624;BME280;34422;45.802;16.114;2023-03-25T21:51:40;99978.16;;;5.19;100.00
48624;BME280;34422;45.802;16.114;2023-03-25T21:54:15;99978.53;;;5.16;100.00
48624;BME280;34422;45.802;16.114;2023-03-25T21:56:44;99972.69;;;5.13;100.00
48624;BME280;34422;45.802;16.114;2023-03-25T21:59:12;99962.31;;;5.10;100.00
48624;BME280;34422;45.802;16.114;2023-03-25T22:01:39;99963.53;;;5.07;100.00
48624;BME280;34422;45.802;16.114;2023-03-25T22:04:08;99971.50;;;5.15;100.00
48624;BME280;34422;45.802;16.114;2023-03-25T22:06:36;99965.94;;;5.02;100.00
48624;BME280;34422;45.802;16.114;2023-03-25T22:09:04;99970.66;;;5.00;100.00
48624;BME280;34422;45.802;16.114;2023-03-25T22:11:33;99977.03;;;4.99;100.00
48624;BME280;34422;45.802;16.114;2023-03-25T22:14:01;99988.88;;;4.90;100.00
48624;BME280;34422;45.802;16.114;2023-03-25T22:16:28;99984.97;;;4.78;100.00
48624;BME280;34422;45.802;16.114;2023-03-25T22:18:54;99992.34;;;4.76;100.00
48624;BME280;34422;45.802;16.114;2023-03-25T22:21:27;100000.56;;;4.74;100.00
48624;BME280;34422;45.802;16.114;2023-03-25T22:24:01;99984.38;;;4.68;100.00
48624;BME280;34422;45.802;16.114;2023-03-25T22:26:29;99986.38;;;4.65;100.00
48624;BME280;34422;45.802;16.114;2023-03-25T22:28:58;99984.00;;;4.71;100.00
48624;BME280;34422;45.802;16.114;2023-03-25T22:31:30;99977.94;;;4.77;100.00
48624;BME280;34422;45.802;16.114;2023-03-25T22:33:59;99983.75;;;4.80;100.00
48624;BME280;34422;45.802;16.114;2023-03-25T22:36:31;99996.59;;;4.85;100.00
48624;BME280;34422;45.802;16.114;2023-03-25T22:38:59;99986.25;;;4.82;100.00
48624;BME280;34422;45.802;16.114;2023-03-25T22:41:26;99998.91;;;4.73;100.00
48624;BME280;34422;45.802;16.114;2023-03-25T22:43:53;99999.75;;;4.74;100.00
48624;BME280;34422;45.802;16.114;2023-03-25T22:46:21;99998.41;;;4.70;100.00
48624;BME280;34422;45.802;16.114;2023-03-25T22:48:49;100007.47;;;4.69;100.00
48624;BME280;34422;45.802;16.114;2023-03-25T22:51:18;99998.78;;;4.67;100.00
48624;BME280;34422;45.802;16.114;2023-03-25T22:53:46;100005.44;;;4.71;100.00
48624;BME280;34422;45.802;16.114;2023-03-25T22:56:13;100009.16;;;4.70;100.00
48624;BME280;34422;45.802;16.114;2023-03-25T22:58:40;99992.72;;;4.73;100.00
48624;BME280;34422;45.802;16.114;2023-03-25T23:01:36;99989.00;;;4.74;100.00
48624;BME280;34422;45.802;16.114;2023-03-25T23:04:04;99988.66;;;4.77;100.00
48624;BME280;34422;45.802;16.114;2023-03-25T23:06:31;99996.09;;;4.67;100.00
48624;BME280;34422;45.802;16.114;2023-03-25T23:09:03;99995.81;;;4.61;100.00
48624;BME280;34422;45.802;16.114;2023-03-25T23:11:30;99991.53;;;4.52;100.00
48624;BME280;34422;45.802;16.114;2023-03-25T23:14:01;99985.72;;;4.26;100.00
48624;BME280;34422;45.802;16.114;2023-03-25T23:16:29;99992.97;;;4.17;100.00
48624;BME280;34422;45.802;16.114;2023-03-25T23:18:57;99993.34;;;4.14;100.00
48624;BME280;34422;45.802;16.114;2023-03-25T23:21:26;100000.34;;;4.15;100.00
48624;BME280;34422;45.802;16.114;2023-03-25T23:23:56;99990.81;;;4.13;100.00
48624;BME280;34422;45.802;16.114;2023-03-25T23:26:26;99982.53;;;4.08;100.00
48624;BME280;34422;45.802;16.114;2023-03-25T23:28:55;99983.22;;;4.02;100.00
48624;BME280;34422;45.802;16.114;2023-03-25T23:31:28;99969.50;;;3.97;100.00
48624;BME280;34422;45.802;16.114;2023-03-25T23:34:01;99957.78;;;3.98;100.00
48624;BME280;34422;45.802;16.114;2023-03-25T23:36:29;99964.16;;;3.97;100.00
48624;BME280;34422;45.802;16.114;2023-03-25T23:38:56;99971.19;;;3.98;100.00
48624;BME280;34422;45.802;16.114;2023-03-25T23:41:24;99974.41;;;3.93;100.00
48624;BME280;34422;45.802;16.114;2023-03-25T23:43:52;99986.31;;;3.90;100.00
48624;BME280;34422;45.802;16.114;2023-03-25T23:46:21;99976.94;;;3.86;100.00
48624;BME280;34422;45.802;16.114;2023-03-25T23:48:48;99985.69;;;3.80;100.00
48624;BME280;34422;45.802;16.114;2023-03-25T23:51:21;99979.69;;;3.78;100.00
48624;BME280;34422;45.802;16.114;2023-03-25T23:53:50;99986.03;;;3.77;100.00
48624;BME280;34422;45.802;16.114;2023-03-25T23:56:19;99981.69;;;3.76;100.00
48624;BME280;34422;45.802;16.114;2023-03-25T23:58:48;99975.34;;;3.77;100.00
